Time;durP1;ratioP1;P1;durP2;ratioP2;P2;SDS_P1;SDS_P2;PMS_P1;PMS_P2;Temp;Humidity;BMP_temperature;BMP_pressure;BME280_temperature;BME280_humidity;BME280_pressure;Samples;Min_cycle;Max_cycle;Signal;HPM_P1;HPM_P2
2023/08/16 00:01:16;;;;;;;5.05;3.65;;;13.80;99.90;;;;;;4979477;28;20050;-79
2023/08/16 00:03:42;;;;;;;5.18;4.18;;;13.70;99.90;;;;;;4967214;28;20512;-79
2023/08/16 00:06:12;;;;;;;7.13;4.72;;;13.70;99.90;;;;;;4983978;28;20078;-79
2023/08/16 00:08:38;;;;;;;4.40;4.00;;;13.70;99.90;;;;;;4975345;28;20101;-79
2023/08/16 00:11:03;;;;;;;5.65;4.20;;;13.70;99.90;;;;;;4982948;28;20058;-79
2023/08/16 00:13:29;;;;;;;6.57;3.90;;;13.60;99.90;;;;;;4984469;28;20129;-79
2023/08/16 00:15:54;;;;;;;4.95;4.05;;;13.60;99.90;;;;;;4988044;28;20046;-79
2023/08/16 00:18:20;;;;;;;4.32;3.92;;;13.60;99.90;;;;;;4977489;28;20062;-79
2023/08/16 00:20:46;;;;;;;5.35;3.65;;;13.50;99.90;;;;;;4986211;28;20042;-79
2023/08/16 00:23:11;;;;;;;4.70;3.65;;;13.50;99.90;;;;;;4987915;28;20412;-79
2023/08/16 00:25:38;;;;;;;6.30;4.28;;;13.50;99.90;;;;;;4988114;28;20038;-79
2023/08/16 00:28:04;;;;;;;4.70;4.00;;;13.50;99.90;;;;;;4986488;28;20061;-79
2023/08/16 00:30:30;;;;;;;5.43;4.10;;;13.40;99.90;;;;;;4989014;28;20057;-79
2023/08/16 00:32:55;;;;;;;4.75;3.60;;;13.40;99.90;;;;;;4991599;28;20054;-79
2023/08/16 00:35:21;;;;;;;5.00;3.70;;;13.40;99.90;;;;;;4991110;28;20039;-79
2023/08/16 00:37:47;;;;;;;5.22;4.28;;;13.30;99.90;;;;;;4990552;28;20739;-79
2023/08/16 00:40:13;;;;;;;7.60;3.67;;;13.30;99.90;;;;;;4981487;28;20047;-79
2023/08/16 00:42:39;;;;;;;7.60;3.92;;;13.40;99.90;;;;;;4971445;28;20853;-79
2023/08/16 00:45:05;;;;;;;5.93;4.47;;;13.30;99.90;;;;;;4982774;28;20118;-79
2023/08/16 00:47:31;;;;;;;5.53;4.60;;;13.30;99.90;;;;;;4990950;28;20042;-79
2023/08/16 00:49:57;;;;;;;7.75;4.20;;;13.20;99.90;;;;;;4989942;28;20049;-79
2023/08/16 00:52:22;;;;;;;6.63;4.65;;;13.70;99.90;;;;;;4990898;28;20050;-79
2023/08/16 00:54:48;;;;;;;5.82;4.03;;;13.20;99.90;;;;;;4980060;28;20053;-79
2023/08/16 00:57:14;;;;;;;6.05;3.63;;;13.20;99.90;;;;;;4971835;28;20045;-79
2023/08/16 00:59:40;;;;;;;5.40;3.90;;;13.10;99.90;;;;;;4990539;28;20405;-79
2023/08/16 01:02:05;;;;;;;5.43;4.00;;;13.10;99.90;;;;;;4991276;28;20049;-79
2023/08/16 01:04:31;;;;;;;5.15;3.80;;;13.10;99.90;;;;;;4990189;28;20080;-78
2023/08/16 01:06:57;;;;;;;4.90;3.80;;;13.10;99.90;;;;;;4991050;28;20040;-79
2023/08/16 01:09:24;;;;;;;5.45;3.97;;;13.00;99.90;;;;;;4974573;28;20051;-79
2023/08/16 01:12:03;;;;;;;5.07;4.00;;;13.20;99.90;;;;;;4990670;28;20054;-79
2023/08/16 01:14:42;;;;;;;5.95;4.15;;;13.00;99.90;;;;;;4990019;28;20061;-78
2023/08/16 01:17:09;;;;;;;5.75;3.85;;;13.00;99.90;;;;;;4991545;28;20069;-79
2023/08/16 01:19:36;;;;;;;4.55;4.05;;;12.90;99.90;;;;;;4988811;28;20046;-79
2023/08/16 01:22:32;;;;;;;4.35;3.95;;;12.90;99.90;;;;;;4991357;28;20042;-79
2023/08/16 01:25:23;;;;;;;5.10;3.70;;;12.90;99.90;;;;;;4988453;28;20081;-79
2023/08/16 01:27:51;;;;;;;5.05;3.90;;;12.80;99.90;;;;;;4971543;28;20047;-79
2023/08/16 01:30:18;;;;;;;5.07;3.72;;;12.80;99.90;;;;;;4990295;28;20093;-79
2023/08/16 01:32:44;;;;;;;4.15;3.75;;;12.80;99.90;;;;;;4990153;28;20046;-79
2023/08/16 01:35:09;;;;;;;5.15;4.20;;;12.80;99.90;;;;;;4990129;28;20054;-79
2023/08/16 01:37:35;;;;;;;6.07;4.22;;;12.80;99.90;;;;;;4981262;28;20054;-79
2023/08/16 01:40:04;;;;;;;5.13;4.00;;;12.80;99.90;;;;;;4987688;28;20045;-79
2023/08/16 01:42:35;;;;;;;5.40;3.83;;;12.80;99.90;;;;;;4987556;28;20501;-79
2023/08/16 01:45:01;;;;;;;4.70;3.80;;;12.80;99.90;;;;;;4989777;28;20061;-79
2023/08/16 01:47:28;;;;;;;5.20;4.13;;;12.70;99.90;;;;;;4988014;28;20074;-79
2023/08/16 01:49:55;;;;;;;4.68;3.72;;;12.80;99.90;;;;;;4972038;28;20109;-79
2023/08/16 01:52:21;;;;;;;4.80;4.00;;;12.80;99.90;;;;;;4990087;28;20113;-79
2023/08/16 01:54:47;;;;;;;4.70;3.75;;;12.70;99.90;;;;;;4986222;28;20461;-79
2023/08/16 01:57:12;;;;;;;6.68;4.05;;;12.80;99.90;;;;;;4988862;28;20046;-79
2023/08/16 01:59:38;;;;;;;4.28;3.75;;;12.80;99.90;;;;;;4984446;28;20492;-79
2023/08/16 02:02:04;;;;;;;5.13;4.15;;;12.80;99.90;;;;;;4988636;28;20110;-79
2023/08/16 02:04:29;;;;;;;5.45;4.40;;;12.70;99.90;;;;;;4970579;28;20061;-79
2023/08/16 02:06:55;;;;;;;3.95;3.60;;;12.80;99.90;;;;;;4988564;28;20047;-79
2023/08/16 02:09:20;;;;;;;5.45;4.22;;;12.80;99.90;;;;;;4988688;28;20053;-79
2023/08/16 02:11:46;;;;;;;4.18;3.70;;;12.80;99.90;;;;;;4989388;28;20192;-79
2023/08/16 02:14:11;;;;;;;7.13;4.28;;;12.80;99.90;;;;;;4988857;28;20050;-79
2023/08/16 02:16:37;;;;;;;6.13;4.20;;;12.80;99.90;;;;;;4976167;28;20677;-79
2023/08/16 02:19:03;;;;;;;6.68;4.57;;;12.80;99.90;;;;;;4979395;28;20125;-79
2023/08/16 02:21:28;;;;;;;6.60;4.32;;;12.80;99.90;;;;;;4989966;28;20385;-79
2023/08/16 02:23:54;;;;;;;5.85;4.20;;;12.80;99.90;;;;;;4989053;28;20086;-79
2023/08/16 02:26:19;;;;;;;4.43;4.03;;;12.70;99.90;;;;;;4989973;28;20532;-79
2023/08/16 02:28:47;;;;;;;4.35;3.85;;;12.70;99.90;;;;;;4987230;28;20565;-79
2023/08/16 02:31:12;;;;;;;5.82;4.85;;;12.70;99.90;;;;;;4982605;28;20108;-79
2023/08/16 02:33:38;;;;;;;5.32;4.40;;;12.70;99.90;;;;;;4984539;28;20054;-79
2023/08/16 02:36:04;;;;;;;5.45;4.43;;;12.70;99.90;;;;;;4989083;28;20193;-80
2023/08/16 02:38:29;;;;;;;6.03;4.38;;;12.70;99.90;;;;;;4986961;28;20066;-79
2023/08/16 02:40:55;;;;;;;5.72;4.35;;;12.70;99.90;;;;;;4978490;28;20045;-79
2023/08/16 02:43:22;;;;;;;6.85;3.90;;;12.70;99.90;;;;;;4977551;28;20073;-79
2023/08/16 02:45:47;;;;;;;5.30;4.50;;;12.70;99.90;;;;;;4987700;28;20054;-79
2023/08/16 02:48:13;;;;;;;4.70;4.22;;;12.70;99.90;;;;;;4988536;28;20165;-79
2023/08/16 02:50:38;;;;;;;6.30;4.32;;;12.60;99.90;;;;;;4987680;28;20408;-79
2023/08/16 02:53:04;;;;;;;5.90;4.63;;;12.60;99.90;;;;;;4988715;28;20089;-79
2023/08/16 02:55:30;;;;;;;5.80;4.95;;;12.60;99.90;;;;;;4983644;28;20775;-79
2023/08/16 02:57:55;;;;;;;6.25;5.03;;;12.60;99.90;;;;;;4988212;28;20042;-79
2023/08/16 03:00:21;;;;;;;5.45;4.72;;;12.60;99.90;;;;;;4988053;28;20034;-79
2023/08/16 03:02:47;;;;;;;7.70;4.93;;;12.60;99.90;;;;;;4984599;28;20164;-79
2023/08/16 03:05:12;;;;;;;7.32;4.85;;;12.60;99.90;;;;;;4988058;28;20057;-79
2023/08/16 03:07:39;;;;;;;6.57;5.25;;;12.60;99.90;;;;;;4985895;28;20505;-79
2023/08/16 03:10:06;;;;;;;5.78;5.18;;;12.50;99.90;;;;;;4983797;28;20065;-79
2023/08/16 03:12:31;;;;;;;5.43;4.93;;;12.50;99.90;;;;;;4968188;28;20121;-79
2023/08/16 03:14:57;;;;;;;8.55;5.43;;;12.50;99.90;;;;;;4988263;28;20064;-79
2023/08/16 03:17:24;;;;;;;8.90;6.03;;;12.60;99.90;;;;;;4988013;28;20054;-79
2023/08/16 03:19:50;;;;;;;6.63;6.03;;;12.50;99.90;;;;;;4985883;28;20145;-79
2023/08/16 03:22:15;;;;;;;6.93;6.22;;;12.60;99.90;;;;;;4988662;28;20054;-79
2023/08/16 03:24:41;;;;;;;7.40;6.32;;;12.60;99.90;;;;;;4981739;28;20042;-79
2023/08/16 03:27:07;;;;;;;9.13;6.10;;;12.70;99.90;;;;;;4987497;28;20049;-79
2023/08/16 03:29:32;;;;;;;7.93;6.32;;;12.70;99.90;;;;;;4987730;28;20548;-80
2023/08/16 03:31:58;;;;;;;7.60;6.05;;;12.70;99.90;;;;;;4987309;28;20062;-80
2023/08/16 03:34:24;;;;;;;8.10;6.05;;;12.70;99.90;;;;;;4978663;28;20141;-79
2023/08/16 03:36:49;;;;;;;8.30;6.00;;;12.80;99.90;;;;;;4988812;28;20077;-79
2023/08/16 03:39:15;;;;;;;6.60;4.90;;;12.70;99.90;;;;;;4984751;28;20057;-79
2023/08/16 03:41:40;;;;;;;9.07;5.40;;;12.70;99.90;;;;;;4984962;28;20058;-79
2023/08/16 03:44:06;;;;;;;7.45;5.05;;;12.70;99.90;;;;;;4988143;28;20067;-80
2023/08/16 03:46:33;;;;;;;7.85;5.53;;;12.70;99.90;;;;;;4987452;28;20479;-79
2023/08/16 03:48:59;;;;;;;8.50;5.88;;;12.60;99.90;;;;;;4977388;28;20061;-79
2023/08/16 03:51:24;;;;;;;5.55;5.05;;;12.60;99.90;;;;;;4982370;28;20050;-79
2023/08/16 03:53:50;;;;;;;7.00;5.30;;;12.60;99.90;;;;;;4982384;28;20054;-79
2023/08/16 03:56:15;;;;;;;8.30;6.40;;;12.60;99.90;;;;;;4987278;28;20400;-79
2023/08/16 03:58:41;;;;;;;8.23;5.55;;;12.50;99.90;;;;;;4980762;28;20097;-80
2023/08/16 04:01:06;;;;;;;6.88;5.28;;;12.60;99.90;;;;;;4977605;28;20105;-80
2023/08/16 04:03:32;;;;;;;7.57;5.90;;;12.60;99.90;;;;;;4988223;28;20049;-80
2023/08/16 04:05:58;;;;;;;8.38;5.72;;;12.60;99.90;;;;;;4968733;28;20050;-80
2023/08/16 04:08:23;;;;;;;6.35;5.35;;;12.60;99.90;;;;;;4990891;28;20392;-80
2023/08/16 04:10:49;;;;;;;7.50;5.50;;;12.60;99.90;;;;;;4983435;28;20064;-80
2023/08/16 04:13:14;;;;;;;6.10;5.50;;;12.60;99.90;;;;;;4977950;28;20096;-79
2023/08/16 04:15:41;;;;;;;8.60;5.88;;;12.50;99.90;;;;;;4991811;28;20043;-80
2023/08/16 04:18:07;;;;;;;11.32;5.82;;;12.50;99.90;;;;;;4973677;28;20120;-80
2023/08/16 04:20:32;;;;;;;8.63;5.68;;;12.50;99.90;;;;;;4990663;28;20054;-80
2023/08/16 04:22:59;;;;;;;9.43;5.72;;;12.50;99.90;;;;;;4991967;28;20492;-80
2023/08/16 04:25:24;;;;;;;5.97;5.38;;;12.60;99.90;;;;;;4990604;28;20496;-80
2023/08/16 04:27:50;;;;;;;7.30;6.00;;;12.60;99.90;;;;;;4991492;28;20054;-80
2023/08/16 04:30:15;;;;;;;7.60;5.68;;;12.60;99.90;;;;;;4989076;28;20061;-80
2023/08/16 04:32:41;;;;;;;8.27;6.00;;;12.60;99.90;;;;;;4988903;28;20046;-80
2023/08/16 04:35:07;;;;;;;5.88;5.28;;;12.60;99.90;;;;;;4991516;28;20053;-80
2023/08/16 04:37:32;;;;;;;6.45;5.38;;;12.60;99.90;;;;;;4990282;28;20396;-80
2023/08/16 04:39:58;;;;;;;6.60;6.00;;;12.60;99.90;;;;;;4988539;28;20054;-80
2023/08/16 04:42:24;;;;;;;7.00;6.03;;;12.50;99.90;;;;;;4989292;28;20049;-80
2023/08/16 04:44:49;;;;;;;9.57;5.60;;;12.60;99.90;;;;;;4968247;28;20055;-80
2023/08/16 04:47:15;;;;;;;7.43;5.70;;;12.60;99.90;;;;;;4984734;28;20405;-80
2023/08/16 04:49:40;;;;;;;7.75;5.88;;;12.60;99.90;;;;;;4990800;28;20069;-80
2023/08/16 04:52:06;;;;;;;7.60;5.90;;;12.60;99.90;;;;;;4989786;28;20101;-80
2023/08/16 04:54:32;;;;;;;8.02;6.10;;;12.70;99.90;;;;;;4988054;28;20159;-80
2023/08/16 04:56:58;;;;;;;6.38;5.72;;;12.70;99.90;;;;;;4990098;28;20519;-80
2023/08/16 04:59:23;;;;;;;6.75;5.90;;;12.70;99.90;;;;;;4988849;28;20046;-80
2023/08/16 05:01:49;;;;;;;6.68;5.68;;;12.70;99.90;;;;;;4990196;28;20046;-80
2023/08/16 05:04:15;;;;;;;8.48;6.40;;;12.80;99.90;;;;;;4983775;28;20050;-80
2023/08/16 05:06:41;;;;;;;6.60;5.32;;;12.80;99.90;;;;;;4989651;28;20042;-80
2023/08/16 05:09:07;;;;;;;7.53;5.60;;;12.80;99.90;;;;;;4986077;28;20496;-80
2023/08/16 05:11:32;;;;;;;8.55;6.43;;;12.80;99.90;;;;;;4983748;28;20435;-80
2023/08/16 05:13:58;;;;;;;12.63;6.38;;;12.70;99.90;;;;;;4982426;28;20050;-81
2023/08/16 05:16:24;;;;;;;8.43;6.03;;;12.80;99.90;;;;;;4984618;28;20458;-80
2023/08/16 05:18:50;;;;;;;6.53;5.53;;;12.80;99.90;;;;;;4991106;28;20035;-80
2023/08/16 05:21:15;;;;;;;10.13;6.22;;;12.90;99.90;;;;;;4989250;28;20038;-80
2023/08/16 05:23:41;;;;;;;9.27;6.40;;;13.00;99.90;;;;;;4988603;28;20042;-81
2023/08/16 05:26:06;;;;;;;7.82;6.00;;;13.00;99.90;;;;;;4980711;28;20061;-81
2023/08/16 05:28:32;;;;;;;9.52;6.05;;;13.20;99.90;;;;;;4980523;28;20058;-81
2023/08/16 05:31:10;;;;;;;7.45;6.13;;;13.20;99.90;;;;;;4989547;28;20056;-81
2023/08/16 05:33:37;;;;;;;6.70;5.93;;;13.30;99.90;;;;;;4989359;28;20058;-81
2023/08/16 05:36:03;;;;;;;8.93;6.78;;;13.40;99.90;;;;;;4990843;28;20046;-81
2023/08/16 05:38:28;;;;;;;7.40;6.38;;;13.50;99.90;;;;;;4990043;28;20907;-81
2023/08/16 05:40:54;;;;;;;9.25;7.05;;;13.90;99.90;;;;;;4990751;28;20042;-81
2023/08/16 05:43:20;;;;;;;7.28;5.95;;;13.80;99.90;;;;;;4989032;28;20105;-81
2023/08/16 05:45:46;;;;;;;6.85;6.13;;;13.90;99.90;;;;;;4971951;28;20113;-81
2023/08/16 05:48:11;;;;;;;7.68;6.55;;;14.00;99.90;;;;;;4990444;28;20077;-81
2023/08/16 05:50:37;;;;;;;6.30;5.70;;;14.10;99.90;;;;;;4990551;28;20043;-80
2023/08/16 05:53:03;;;;;;;8.10;6.13;;;14.30;99.90;;;;;;4990893;28;20042;-81
2023/08/16 05:55:29;;;;;;;8.90;6.25;;;14.60;99.90;;;;;;4981854;28;20038;-81
2023/08/16 05:57:55;;;;;;;6.13;5.53;;;14.90;99.90;;;;;;4988778;28;20054;-82
2023/08/16 06:00:20;;;;;;;8.27;5.88;;;16.00;99.90;;;;;;4987729;28;20081;-82
2023/08/16 06:02:46;;;;;;;6.95;6.05;;;17.10;99.90;;;;;;4988485;28;20046;-84
2023/08/16 06:05:11;;;;;;;8.63;5.47;;;18.10;99.90;;;;;;4990212;28;20050;-84
2023/08/16 06:07:37;;;;;;;6.97;6.28;;;19.10;99.90;;;;;;4990277;28;20496;-82
2023/08/16 06:10:04;;;;;;;7.03;6.05;;;19.50;99.90;;;;;;4989822;28;20038;-82
2023/08/16 06:12:30;;;;;;;9.70;5.90;;;20.20;99.90;;;;;;4988320;28;20364;-82
2023/08/16 06:14:56;;;;;;;7.53;5.80;;;20.20;99.90;;;;;;4972265;28;20050;-82
2023/08/16 06:17:21;;;;;;;7.65;5.63;;;19.80;99.90;;;;;;4988848;28;20050;-82
2023/08/16 06:19:47;;;;;;;7.43;5.68;;;19.30;99.90;;;;;;4989762;28;20511;-81
2023/08/16 06:22:12;;;;;;;6.65;4.97;;;18.80;99.90;;;;;;4989675;28;20121;-81
2023/08/16 06:24:38;;;;;;;9.23;5.53;;;18.40;99.90;;;;;;4972102;28;20054;-81
2023/08/16 06:27:03;;;;;;;5.97;5.15;;;18.10;99.90;;;;;;4987884;28;20125;-81
2023/08/16 06:29:30;;;;;;;7.22;5.30;;;17.80;99.90;;;;;;4984600;28;20410;-82
2023/08/16 06:31:56;;;;;;;8.32;5.03;;;17.70;99.90;;;;;;4974182;28;20051;-82
2023/08/16 06:34:22;;;;;;;5.93;4.78;;;17.50;99.90;;;;;;4968156;28;20069;-82
2023/08/16 06:36:47;;;;;;;7.50;5.22;;;17.40;99.90;;;;;;4973137;28;20051;-82
2023/08/16 06:39:13;;;;;;;5.82;5.05;;;17.30;99.90;;;;;;4968373;28;20118;-82
2023/08/16 06:41:39;;;;;;;6.05;4.95;;;17.30;99.90;;;;;;4968298;28;20586;-82
2023/08/16 06:44:05;;;;;;;9.20;5.53;;;17.20;99.90;;;;;;4967284;28;20066;-84
2023/08/16 06:46:31;;;;;;;10.05;5.70;;;17.20;99.90;;;;;;4967435;28;20042;-83
2023/08/16 06:48:57;;;;;;;7.55;5.68;;;17.20;99.90;;;;;;4985701;28;20045;-83
2023/08/16 06:51:22;;;;;;;8.27;5.70;;;17.30;99.90;;;;;;4984664;28;20108;-83
2023/08/16 06:53:49;;;;;;;6.43;5.82;;;17.40;99.90;;;;;;4989248;28;20104;-83
2023/08/16 06:56:15;;;;;;;8.63;5.47;;;17.40;99.90;;;;;;4957104;28;20042;-85
2023/08/16 06:58:43;;;;;;;6.57;5.95;;;17.50;99.90;;;;;;4987976;28;20039;-83
2023/08/16 07:01:09;;;;;;;8.82;5.85;;;17.70;99.90;;;;;;4989591;28;20054;-84
2023/08/16 07:03:35;;;;;;;7.85;5.57;;;17.80;99.90;;;;;;4971849;28;20109;-85
2023/08/16 07:06:01;;;;;;;7.10;5.18;;;18.00;99.90;;;;;;4987834;28;20049;-85
2023/08/16 07:08:26;;;;;;;6.55;5.40;;;18.20;99.90;;;;;;4969424;28;20073;-84
2023/08/16 07:10:52;;;;;;;7.35;5.20;;;18.30;99.90;;;;;;4984928;28;20457;-83
2023/08/16 07:13:18;;;;;;;9.93;5.30;;;18.30;99.90;;;;;;4988580;28;20049;-83
2023/08/16 07:15:43;;;;;;;9.73;5.18;;;18.30;99.90;;;;;;4986993;28;20050;-83
2023/08/16 07:18:09;;;;;;;5.82;4.80;;;18.40;99.90;;;;;;4986868;28;20050;-84
2023/08/16 07:20:34;;;;;;;7.53;5.03;;;18.50;99.90;;;;;;4988498;28;20050;-83
2023/08/16 07:23:01;;;;;;;7.88;5.05;;;18.50;99.90;;;;;;4988637;28;20108;-83
2023/08/16 07:25:27;;;;;;;6.43;5.53;;;18.70;99.90;;;;;;4988340;28;20046;-84
2023/08/16 07:27:53;;;;;;;6.63;4.50;;;18.60;99.90;;;;;;4988564;28;20455;-84
2023/08/16 07:30:18;;;;;;;7.93;5.03;;;18.60;99.90;;;;;;4986858;28;20050;-84
2023/08/16 07:32:44;;;;;;;7.72;5.53;;;18.60;99.90;;;;;;4988699;28;20084;-84
2023/08/16 07:35:10;;;;;;;5.05;4.63;;;18.70;99.90;;;;;;4988389;28;20046;-84
2023/08/16 07:37:36;;;;;;;5.13;4.60;;;18.80;99.90;;;;;;4987017;28;20108;-84
2023/08/16 07:40:03;;;;;;;6.78;4.40;;;18.90;99.90;;;;;;4986051;28;20047;-84
2023/08/16 07:42:28;;;;;;;6.35;4.05;;;18.90;99.90;;;;;;4986746;28;20128;-84
2023/08/16 07:44:54;;;;;;;4.43;3.80;;;19.00;99.90;;;;;;4987846;28;20092;-82
2023/08/16 07:47:19;;;;;;;8.77;3.85;;;19.10;99.90;;;;;;4987888;28;20042;-83
2023/08/16 07:49:45;;;;;;;5.32;3.90;;;19.10;99.90;;;;;;4988854;28;20160;-82
2023/08/16 07:52:11;;;;;;;4.45;4.05;;;19.20;99.90;;;;;;4987415;28;20042;-84
2023/08/16 07:54:36;;;;;;;5.57;2.83;;;19.30;99.90;;;;;;4970871;28;20058;-85
2023/08/16 07:57:02;;;;;;;5.57;3.50;;;19.30;99.90;;;;;;4988891;28;20073;-84
2023/08/16 07:59:28;;;;;;;4.70;2.90;;;19.30;99.90;;;;;;4988535;28;20073;-85
2023/08/16 08:01:56;;;;;;;6.95;2.75;;;19.40;99.90;;;;;;4988349;28;20050;-82
2023/08/16 08:04:21;;;;;;;5.55;3.10;;;19.50;99.90;;;;;;4988810;28;20049;-82
2023/08/16 08:06:48;;;;;;;8.32;3.58;;;19.70;99.90;;;;;;4988463;28;20102;-83
2023/08/16 08:09:13;;;;;;;3.90;3.00;;;19.80;99.90;;;;;;4986938;28;20035;-82
2023/08/16 08:11:39;;;;;;;4.55;2.60;;;19.90;99.90;;;;;;4970026;28;20109;-83
2023/08/16 08:14:05;;;;;;;5.78;2.95;;;20.10;99.90;;;;;;4988935;28;20057;-83
2023/08/16 08:16:31;;;;;;;5.00;2.78;;;20.20;99.90;;;;;;4987376;28;20077;-83
2023/08/16 08:18:57;;;;;;;5.43;1.80;;;20.20;99.90;;;;;;4988049;28;20046;-82
2023/08/16 08:21:23;;;;;;;4.57;2.25;;;20.20;99.90;;;;;;4988610;28;20046;-85
2023/08/16 08:23:48;;;;;;;5.03;3.22;;;20.30;99.90;;;;;;4969615;28;20409;-83
2023/08/16 08:26:17;;;;;;;2.30;2.10;;;20.40;99.90;;;;;;4987194;28;20060;-82
2023/08/16 08:28:43;;;;;;;4.85;2.33;;;20.30;99.90;;;;;;4971171;28;20054;-84
2023/08/16 08:31:08;;;;;;;2.35;1.58;;;20.30;99.90;;;;;;4988068;28;20050;-86
2023/08/16 08:33:34;;;;;;;2.88;1.70;;;20.20;99.90;;;;;;4986513;28;20035;-84
2023/08/16 08:36:00;;;;;;;4.25;1.75;;;20.10;99.90;;;;;;4984782;28;20516;-84
2023/08/16 08:38:26;;;;;;;3.60;1.80;;;20.10;99.90;;;;;;4985733;28;20158;-84
2023/08/16 08:40:58;;;;;;;2.88;1.30;;;20.10;99.90;;;;;;4986096;28;20116;-84
2023/08/16 08:43:37;;;;;;;2.28;1.65;;;20.20;99.90;;;;;;4985668;28;20463;-84
2023/08/16 08:46:06;;;;;;;4.10;1.30;;;20.40;99.90;;;;;;4986264;28;20167;-85
2023/08/16 08:48:32;;;;;;;1.88;1.58;;;20.50;99.90;;;;;;4985363;28;20069;-86
2023/08/16 08:51:00;;;;;;;3.15;1.60;;;20.60;99.90;;;;;;4988601;28;20042;-84
2023/08/16 08:53:26;;;;;;;1.40;1.30;;;20.50;99.90;;;;;;4991062;28;20412;-84
2023/08/16 08:56:01;;;;;;;3.35;1.48;;;20.70;99.90;;;;;;4990290;28;20675;-84
2023/08/16 08:58:29;;;;;;;3.10;1.70;;;20.70;99.90;;;;;;4989750;28;20065;-84
2023/08/16 09:00:55;;;;;;;2.25;1.80;;;20.70;99.90;;;;;;4989969;28;20125;-83
2023/08/16 09:03:22;;;;;;;2.55;1.55;;;20.70;99.90;;;;;;4991120;28;20579;-85
2023/08/16 09:05:50;;;;;;;2.42;1.50;;;20.80;99.90;;;;;;4989238;28;20125;-84
2023/08/16 09:08:16;;;;;;;5.68;1.60;;;20.80;99.90;;;;;;4990536;28;20136;-84
2023/08/16 09:10:42;;;;;;;1.60;1.30;;;20.60;99.90;;;;;;4990020;28;20137;-84
2023/08/16 09:13:10;;;;;;;2.47;1.20;;;20.70;99.90;;;;;;4990931;28;20046;-84
2023/08/16 09:15:38;;;;;;;3.00;1.25;;;20.60;99.90;;;;;;4989823;28;20085;-83
2023/08/16 09:18:16;;;;;;;3.05;1.40;;;20.70;99.90;;;;;;4990880;28;20046;-83
2023/08/16 09:20:42;;;;;;;2.42;1.23;;;20.60;99.90;;;;;;4991060;28;20050;-82
2023/08/16 09:23:12;;;;;;;3.17;1.52;;;20.60;99.90;;;;;;4991155;28;20055;-82
2023/08/16 09:25:38;;;;;;;3.28;1.25;;;20.60;99.90;;;;;;4973455;28;20057;-83
2023/08/16 09:28:07;;;;;;;2.72;1.25;;;20.70;99.90;;;;;;4991161;28;20046;-83
2023/08/16 09:30:33;;;;;;;2.10;1.35;;;20.90;99.90;;;;;;4989791;28;20377;-83
2023/08/16 09:33:00;;;;;;;1.55;0.90;;;21.10;99.90;;;;;;4989826;28;20105;-81
2023/08/16 09:35:48;;;;;;;2.22;1.52;;;21.30;99.90;;;;;;4990791;28;20539;-81
2023/08/16 09:38:15;;;;;;;2.28;1.30;;;21.60;99.90;;;;;;4989403;28;20046;-83
2023/08/16 09:40:51;;;;;;;2.63;1.40;;;21.80;99.90;;;;;;4989235;28;20050;-83
2023/08/16 09:43:20;;;;;;;1.85;1.13;;;21.80;99.90;;;;;;4990427;28;20082;-81
2023/08/16 09:45:52;;;;;;;4.15;1.13;;;22.00;99.90;;;;;;4990739;28;20049;-82
2023/08/16 09:48:21;;;;;;;3.20;1.85;;;22.20;99.90;;;;;;4990120;28;20145;-83
2023/08/16 09:50:47;;;;;;;2.05;1.17;;;22.20;99.90;;;;;;4989434;28;20055;-81
2023/08/16 09:53:13;;;;;;;2.88;1.40;;;22.20;99.90;;;;;;4990372;28;20124;-80
2023/08/16 09:55:41;;;;;;;2.85;1.30;;;22.20;99.90;;;;;;4990175;28;20501;-82
2023/08/16 09:58:07;;;;;;;2.38;1.50;;;22.30;99.90;;;;;;4989272;28;20053;-82
2023/08/16 10:00:34;;;;;;;3.78;1.27;;;22.40;99.90;;;;;;4990474;28;20460;-82
2023/08/16 10:03:01;;;;;;;1.98;1.20;;;22.50;99.90;;;;;;4989588;28;20046;-82
2023/08/16 10:05:27;;;;;;;2.85;1.63;;;22.40;99.90;;;;;;4990010;28;20049;-82
2023/08/16 10:07:59;;;;;;;4.20;1.17;;;22.50;99.90;;;;;;4990479;28;20505;-81
2023/08/16 10:10:25;;;;;;;2.13;1.23;;;22.60;99.90;;;;;;4990031;28;20420;-81
2023/08/16 10:12:52;;;;;;;3.50;1.70;;;22.60;99.90;;;;;;4990302;28;20073;-82
2023/08/16 10:15:17;;;;;;;1.95;1.20;;;22.70;99.90;;;;;;4989934;28;20128;-81
2023/08/16 10:17:43;;;;;;;2.78;1.20;;;22.70;99.90;;;;;;4990176;28;20073;-83
2023/08/16 10:20:17;;;;;;;3.15;1.58;;;22.70;99.90;;;;;;4988550;28;20140;-83
2023/08/16 10:22:43;;;;;;;2.05;1.23;;;22.60;99.90;;;;;;4990357;28;20042;-82
2023/08/16 10:25:18;;;;;;;3.75;1.83;;;22.70;99.90;;;;;;4987877;28;20054;-82
2023/08/16 10:27:44;;;;;;;2.58;1.80;;;22.60;99.90;;;;;;4989860;28;20409;-82
2023/08/16 10:30:24;;;;;;;3.92;1.60;;;22.50;99.90;;;;;;4989325;28;20050;-82
2023/08/16 10:32:58;;;;;;;2.67;1.25;;;22.50;99.90;;;;;;4988727;28;20122;-81
2023/08/16 10:35:25;;;;;;;4.10;1.05;;;22.60;99.90;;;;;;4989301;28;20092;-82
2023/08/16 10:37:53;;;;;;;1.65;1.05;;;22.80;99.90;;;;;;4989798;28;20504;-83
2023/08/16 10:40:20;;;;;;;2.00;1.27;;;23.00;99.90;;;;;;4989253;28;20054;-83
2023/08/16 10:42:56;;;;;;;1.60;1.35;;;23.00;99.90;;;;;;4987957;28;20137;-81
2023/08/16 10:45:23;;;;;;;2.05;1.05;;;23.00;99.90;;;;;;4988497;28;20039;-83
2023/08/16 10:47:48;;;;;;;2.55;1.20;;;23.10;99.90;;;;;;4989342;28;20054;-83
2023/08/16 10:50:14;;;;;;;1.52;0.98;;;23.10;99.90;;;;;;4989762;28;20053;-83
2023/08/16 10:52:42;;;;;;;2.10;1.05;;;23.20;99.90;;;;;;4988310;28;20050;-82
2023/08/16 10:55:07;;;;;;;2.08;1.00;;;23.20;99.90;;;;;;4988872;28;20053;-83
2023/08/16 10:57:34;;;;;;;1.83;1.00;;;23.30;99.90;;;;;;4989156;28;20034;-84
2023/08/16 11:00:09;;;;;;;2.08;0.95;;;23.40;99.90;;;;;;4989774;28;20060;-83
2023/08/16 11:02:39;;;;;;;2.28;0.93;;;23.50;99.90;;;;;;4989248;28;20080;-83
2023/08/16 11:05:13;;;;;;;1.40;1.00;;;23.50;99.90;;;;;;4989322;28;20046;-84
2023/08/16 11:07:43;;;;;;;2.38;1.45;;;23.50;99.90;;;;;;4989373;28;20124;-83
2023/08/16 11:10:08;;;;;;;2.42;1.23;;;23.40;99.90;;;;;;4988981;28;20460;-82
2023/08/16 11:12:34;;;;;;;1.60;0.98;;;23.60;99.90;;;;;;4988819;28;20038;-81
2023/08/16 11:15:00;;;;;;;1.00;0.70;;;23.60;99.60;;;;;;4988056;28;20046;-82
2023/08/16 11:17:27;;;;;;;2.55;1.00;;;23.70;99.70;;;;;;4982964;28;20076;-82
2023/08/16 11:19:56;;;;;;;1.08;0.90;;;23.90;99.30;;;;;;4969352;28;20149;-82
2023/08/16 11:22:22;;;;;;;1.00;0.70;;;24.10;98.20;;;;;;4974070;28;20034;-81
2023/08/16 11:24:49;;;;;;;2.22;0.80;;;24.20;97.30;;;;;;4985290;28;20050;-82
2023/08/16 11:27:22;;;;;;;1.55;0.82;;;24.20;96.20;;;;;;4987697;28;20042;-82
2023/08/16 11:29:54;;;;;;;2.70;0.70;;;24.30;94.20;;;;;;4988616;28;20043;-84
2023/08/16 11:32:40;;;;;;;1.75;0.70;;;24.30;93.80;;;;;;4988764;28;20389;-83
2023/08/16 11:35:11;;;;;;;1.17;0.80;;;24.20;93.40;;;;;;4988618;28;20053;-81
2023/08/16 11:37:41;;;;;;;1.75;0.88;;;24.20;93.60;;;;;;4987098;28;20046;-82
2023/08/16 11:40:08;;;;;;;2.67;0.90;;;24.20;93.20;;;;;;4987848;28;20093;-81
2023/08/16 11:42:35;;;;;;;1.52;1.00;;;24.30;94.30;;;;;;4988380;28;20395;-82
2023/08/16 11:45:01;;;;;;;1.55;1.08;;;24.50;95.10;;;;;;4988177;28;20105;-83
2023/08/16 11:47:26;;;;;;;1.98;1.20;;;24.80;94.20;;;;;;4987180;28;20053;-82
2023/08/16 11:49:52;;;;;;;2.38;1.25;;;24.60;94.10;;;;;;4969844;28;20039;-84
2023/08/16 11:52:25;;;;;;;2.75;1.10;;;24.50;94.60;;;;;;4980742;28;20046;-83
2023/08/16 11:55:19;;;;;;;3.00;1.95;;;24.60;94.30;;;;;;4986450;28;20097;-84
2023/08/16 11:57:48;;;;;;;2.03;1.10;;;24.60;94.50;;;;;;4952120;28;20054;-84
2023/08/16 12:00:24;;;;;;;2.42;1.00;;;24.50;95.00;;;;;;4981187;28;20051;-83
2023/08/16 12:02:49;;;;;;;1.83;1.20;;;24.50;94.60;;;;;;4988950;28;20038;-85
2023/08/16 12:05:15;;;;;;;2.40;1.10;;;24.30;93.40;;;;;;4986394;28;20061;-83
2023/08/16 12:07:48;;;;;;;3.00;1.20;;;24.20;93.70;;;;;;4978008;28;20249;-83
2023/08/16 12:10:27;;;;;;;0.98;0.80;;;24.20;93.40;;;;;;4972149;28;20042;-84
2023/08/16 12:12:56;;;;;;;2.92;1.10;;;24.30;93.60;;;;;;4985322;28;20054;-84
2023/08/16 12:15:26;;;;;;;1.88;0.95;;;24.30;93.40;;;;;;4978151;28;20053;-84
2023/08/16 12:17:53;;;;;;;1.60;1.08;;;24.20;93.10;;;;;;4984767;28;20136;-83
2023/08/16 12:20:19;;;;;;;1.25;0.90;;;24.20;93.10;;;;;;4986970;28;20085;-83
2023/08/16 12:22:45;;;;;;;1.67;0.82;;;24.40;93.50;;;;;;4988292;28;20160;-83
2023/08/16 12:25:11;;;;;;;1.38;0.90;;;24.50;92.80;;;;;;4977733;28;20112;-83
2023/08/16 12:27:37;;;;;;;1.75;1.20;;;24.60;92.70;;;;;;4972605;28;20536;-84
2023/08/16 12:30:05;;;;;;;2.88;1.08;;;24.70;92.70;;;;;;4980537;28;20046;-84
2023/08/16 12:32:31;;;;;;;2.20;0.80;;;24.80;92.80;;;;;;4989462;28;20054;-84
2023/08/16 12:34:57;;;;;;;1.13;0.50;;;24.80;91.90;;;;;;4992030;28;20050;-82
2023/08/16 12:37:22;;;;;;;0.95;0.70;;;24.70;91.50;;;;;;4991768;28;20069;-81
2023/08/16 12:39:48;;;;;;;2.75;0.93;;;24.60;91.20;;;;;;4989844;28;20806;-80
2023/08/16 12:42:13;;;;;;;1.55;0.90;;;24.50;92.00;;;;;;4990543;28;20085;-78
2023/08/16 12:44:39;;;;;;;2.00;0.75;;;24.60;91.90;;;;;;4991836;28;20548;-80